SBGO/GYN METAR and TAF weather

Enter ICAO airport designator
Station Type Date Time Source
SBGO METAR 2022/01/23 12:00 UTC NOAA

SBGO 231200Z VRB02KT CAVOK 26/20 Q1016


Station Type Date Time Source
SBGO Decoded METAR 2022/01/23 12:00 UTC NOAA

Goiania Aeroporto , Brazil (SBGO) 16-38S 049-13W
Jan 23, 2022 - 07:00 AM EST / 2022.01.23 1200 UTC
Wind: Variable at 2 MPH (2 KT):0
Visibility: greater than 7 mile(s):0
Temperature: 78 F (26 C)
Dew Point: 68 F (20 C)
Relative Humidity: 69%
Pressure (altimeter): 30.00 in. Hg (1016 hPa)
ob: SBGO 231200Z VRB02KT CAVOK 26/20 Q1016
cycle: 12

Station Type Date Time Source
SBGO TAF 2022/01/23 12:42 UTC NOAA

TAF SBGO 231000Z 2312/2412 12005KT CAVOK TX32/2317Z TN20/2409Z
BECMG 2313/2315 08005KT 9999 SCT040
TEMPO 2318/2324 15005KT VCTS SCT035 FEW045CB
BECMG 2401/2403 00000KT CAVOK
BECMG 2410/2412 12005KT
RMK PGH

Example: see airport list